Airfield :
LOGIN :

Register | Disclaimer

   EN    FR    IT 

 










Legend :    VFR   Marginal VFR   IFR   Intensive IFR   Very Intensive IFR
Visi :
Ceiling :
>= 8 km
>= 3000ft
5 to 8 km
1000 to 3000 ft
1500m to 5 km
500 to 1000 ft
800 to 1500m
200 to 500 ft
< 800m
< 200 ft
Symbols :   Thunderstorms  Fog  Heavy snow  Heavy precipitations  Wind > 20 kt
SIGMETs :     Misc.  Thunderstorms  Icing  Turbulence  Mountain Waves  Volcanic Ashes






- Airport Elevation : 53 ft
- IATA code : HAM


EDDH - Hamburg

CURRENT METAR :
  • 190050Z 26007KT 9999 FEW020 03/01 Q1026 NOSIG

EXPIRED METARs :
  • 190020Z 26007KT 9999 SCT022 SCT040 03/02 Q1025 NOSIG
  • 182350Z 26006KT 9999 SCT025 03/01 Q1025 NOSIG
  • 182320Z 24006KT 9999 SCT023 02/01 Q1025 NOSIG
  • 182250Z 24006KT 9999 FEW015 02/01 Q1024 NOSIG
  • 182220Z 25005KT 220V280 9999 -SHRA FEW011 SCT023 BKN048 03/02 Q1024 NOSIG

TAF TAF EDDH
Valid from the 19 at 00:00 until the 20 at 06:00 UTC


182300Z 1900/2006 26005KT 9999 SCT020
TEMPO 1900/1906 BKN012
PROB30
TEMPO 1900/1906 BKN007
BECMG 1909/1912 31010KT
BECMG 1915/1918 31005KT
BECMG 2000/2003 BKN012
BECMG 2003/2006 25005KT
TEMPO 2003/2006 4000 BR



MET'MAP, your aeronautical weather chart ! - Copyright ORBIFLY December 2007 - Disclaimer

ORBIFLY MET'MAP TEAM :

Programming & Development : Alexandra Zaïnal
Concept & original design : Baudouin d'Aumeries
Assistance for programming : Marc-Olivier Méhu
Technical & hardware support : Manuel Goepfert

Contact : metmap@orbifly.com




SOURCES & CREDITS :

   NOAA